DW1564 Weather Reports


time (UTC)temp
F
wind
direction
speed
knots
gust
knots
rain 1hr
in
rain 24hr
in
rain mn
in
humidity
%
barometer
mb
20211017160114 59 139 0.0 3.5 0.00 0.00 0.00 16 1012.9
20211017154533 58 141 0.0 2.6 0.00 0.00 0.00 17 1013.2
20211017153041 58 141 0.0 1.7 0.00 0.00 0.00 17 1013.3
20211017151508 57 141 0.0 3.5 0.00 0.00 0.00 18 1013.4
20211017150004 53 141 0.0 0.0 0.00 0.00 0.00 20 1013.2
20211017144608 51 141 0.0 2.6 0.00 0.00 0.00 21 1013.0
20211017143059 49 141 0.0 0.0 0.00 0.00 0.00 22 1012.8
20211017141538 0 0.0 0.0 0.00 0.00 0.00 1012.8
20211017140013 0 0.0 0.0 0.00 0.00 0.00 1012.7
20211017134731 0 0.0 0.0 0.00 0.00 0.00 1012.9
20211017133058 0 0.0 0.0 0.00 0.00 0.00 1013.2
20211017131530 0 0.0 0.0 0.00 0.00 0.00 1013.7
20211017130021 0 0.0 0.0 0.00 0.00 0.00 1014.2
20211017124714 45 141 0.0 0.0 0.00 0.00 0.00 26 1014.5
20211017124503 45 141 0.0 0.0 0.00 0.00 0.00 26 1014.4
20211017123122 45 141 0.0 0.0 0.00 0.00 0.00 26 1014.5
20211017121649 46 141 0.0 0.0 0.00 0.00 0.00 26 1014.6
20211017120046 46 141 0.0 0.0 0.00 0.00 0.00 26 1014.6
20211017114534 45 141 0.0 0.0 0.00 0.00 0.00 26 1014.7
20211017113105 45 141 0.0 0.0 0.00 0.00 0.00 27 1014.8
20211017111519 45 141 0.0 0.0 0.00 0.00 0.00 27 1014.9
20211017110002 45 141 0.0 0.0 0.00 0.00 0.00 27 1015.0
20211017104553 45 141 0.0 0.0 0.00 0.00 0.00 27 1015.2
20211017103108 45 141 0.0 0.0 0.00 0.00 0.00 27 1015.1
20211017101523 45 141 0.0 0.0 0.00 0.00 0.00 27 1015.1
20211017100139 45 141 0.0 0.0 0.00 0.00 0.00 27 1015.2
20211017094502 45 141 0.0 0.0 0.00 0.00 0.00 28 1015.4
20211017093204 44 141 0.0 0.0 0.00 0.00 0.00 30 1015.6
20211017091549 44 141 0.0 0.0 0.00 0.00 0.00 30 1015.8
20211017090052 44 141 0.0 0.0 0.00 0.00 0.00 30 1016.0
20211017084531 44 141 0.0 0.0 0.00 0.00 0.00 31 1016.0
20211017083043 44 141 0.0 0.0 0.00 0.00 0.00 32 1016.3
20211017081505 43 141 0.0 0.0 0.00 0.00 0.00 33 1016.4
20211017080327 43 141 0.0 0.0 0.00 0.00 0.00 36 1016.7
20211017074553 42 141 0.0 0.0 0.00 0.00 0.00 38 1016.8
20211017073102 42 141 0.0 0.0 0.00 0.00 0.00 39 1016.9
20211017071531 41 141 0.0 0.0 0.00 0.00 0.00 39 1017.0
20211017070046 41 141 0.0 0.0 0.00 0.00 0.00 40 1017.2
20211017064503 41 141 0.0 0.0 0.00 0.00 0.00 40 1017.3
20211017063003 41 141 0.0 0.0 0.00 0.00 0.00 41 1017.6
20211017061719 41 141 0.0 0.0 0.00 0.00 0.00 41 1017.8
20211017060048 41 141 0.0 0.0 0.00 0.00 0.00 40 1017.8
20211017054544 42 141 0.0 0.0 0.00 0.00 0.00 39 1017.8
20211017053030 42 141 0.0 0.0 0.00 0.00 0.00 38 1018.1
20211017051504 42 141 0.0 0.0 0.00 0.00 0.00 38 1018.1
20211017050008 43 141 0.0 0.0 0.00 0.00 0.00 37 1018.2
20211017044619 43 141 0.0 0.0 0.00 0.00 0.00 37 1018.4
20211017043123 44 141 0.0 0.0 0.00 0.00 0.00 37 1018.6
20211017041545 44 141 0.0 0.0 0.00 0.00 0.00 36 1018.6
20211017040113 44 141 0.0 0.0 0.00 0.00 0.00 36 1018.8
20211017034505 44 141 0.0 0.9 0.00 0.00 0.00 36 1019.0
20211017033009 45 141 0.0 0.9 0.00 0.00 0.00 35 1019.3
20211017031618 44 141 0.0 0.0 0.00 0.00 0.00 35 1019.4
20211017030107 44 141 0.0 0.0 0.00 0.00 0.00 36 1019.4
20211017024530 44 141 0.0 0.0 0.00 0.00 0.00 36 1019.5
20211017023052 44 141 0.0 0.0 0.00 0.00 0.00 36 1019.7
20211017021515 44 141 0.0 0.0 0.00 0.00 0.00 36 1019.9
20211017020007 45 141 0.0 0.0 0.00 0.00 0.00 35 1020.0
20211017014732 45 141 0.0 0.0 0.00 0.00 0.00 34 1020.2
20211017013115 46 141 0.0 0.0 0.00 0.00 0.00 34 1020.3
20211017011530 47 141 0.0 0.0 0.00 0.00 0.00 33 1020.5
20211017010039 48 141 0.0 0.0 0.00 0.00 0.00 32 1020.1
20211017004519 49 141 0.0 0.0 0.00 0.00 0.00 31 1020.1
20211017003018 51 141 0.0 0.0 0.00 0.00 0.00 30 1019.9
20211017001805 52 141 0.0 0.0 0.00 0.00 0.00 29 1019.9
20211017000057 54 141 0.0 0.0 0.00 0.00 0.00 28 1019.7
20211016234548 56 141 0.0 0.0 0.00 0.00 0.00 27 1020.0
20211016233034 59 141 0.0 1.7 0.00 0.00 0.00 23 1019.8
20211016231515 59 141 0.0 2.6 0.00 0.00 0.00 23 1019.8
20211016230018 60 142 0.0 2.6 0.00 0.00 0.00 22 1020.0
20211016224641 61 142 0.0 6.1 0.00 0.00 0.00 22 1020.1
20211016223118 62 141 0.0 2.6 0.00 0.00 0.00 22 1020.1
20211016221540 61 142 0.0 2.6 0.00 0.00 0.00 22 1020.4
20211016220047 61 148 0.0 5.2 0.00 0.00 0.00 22 1020.4
20211016214521 63 148 0.0 3.5 0.00 0.00 0.00 22 1020.5
20211016213036 62 159 0.0 8.7 0.00 0.00 0.00 21 1020.8
20211016211614 62 114 0.0 4.3 0.00 0.00 0.00 21 1020.8
20211016210203 61 114 0.0 4.3 0.00 0.00 0.00 22 1020.8
20211016204603 62 113 0.0 7.8 0.00 0.00 0.00 21 1020.7
20211016203043 62 107 0.0 6.1 0.00 0.00 0.00 21 1020.7
20211016201514 61 129 0.9 6.1 0.00 0.00 0.00 21 1021.1
20211016200040 62 128 0.0 2.6 0.00 0.00 0.00 21 1021.0
20211016193051 60 133 0.0 4.3 0.00 0.00 0.00 22 1021.5
20211016191618 60 122 0.0 3.5 0.00 0.00 0.00 22 1021.9
20211016190054 59 126 0.0 7.0 0.00 0.00 0.00 24 1022.2
20211016184534 60 136 1.7 6.1 0.00 0.00 0.00 22 1022.4
20211016183004 61 121 0.0 7.0 0.00 0.00 0.00 22 1022.7
20211016181506 60 139 0.0 0.9 0.00 0.00 0.00 24 1022.9
20211016180138 60 139 0.0 3.5 0.00 0.00 0.00 23 1023.1
20211016174619 60 140 0.0 0.9 0.00 0.00 0.00 23 1023.4
20211016173044 59 140 0.0 0.0 0.00 0.00 0.00 24 1023.6
20211016171532 58 140 0.0 3.5 0.00 0.00 0.00 23 1023.8
20211016170026 57 140 0.0 6.1 0.00 0.00 0.00 24 1024.2
20211016164510 57 140 0.0 7.0 0.00 0.00 0.00 23 1024.4
20211016163016 55 149 0.0 0.9 0.00 0.00 0.00 26 1024.5